sensor_id;sensor_type;location;lat;lon;timestamp;temperature;humidity
24614;DHT22;12760;46.296;25.290;2023-08-08T00:00:47;17.80;99.90
24614;DHT22;12760;46.296;25.290;2023-08-08T00:03:13;17.80;99.90
24614;DHT22;12760;46.296;25.290;2023-08-08T00:05:39;17.70;99.90
24614;DHT22;12760;46.296;25.290;2023-08-08T00:08:05;17.70;99.90
24614;DHT22;12760;46.296;25.290;2023-08-08T00:10:31;17.70;99.90
24614;DHT22;12760;46.296;25.290;2023-08-08T00:12:57;17.60;99.90
24614;DHT22;12760;46.296;25.290;2023-08-08T00:15:23;17.70;99.90
24614;DHT22;12760;46.296;25.290;2023-08-08T00:17:49;17.70;99.90
24614;DHT22;12760;46.296;25.290;2023-08-08T00:20:14;17.70;99.90
24614;DHT22;12760;46.296;25.290;2023-08-08T00:22:41;17.70;99.90
24614;DHT22;12760;46.296;25.290;2023-08-08T00:25:07;17.60;99.90
24614;DHT22;12760;46.296;25.290;2023-08-08T00:27:33;17.60;99.90
24614;DHT22;12760;46.296;25.290;2023-08-08T00:29:59;17.50;99.90
24614;DHT22;12760;46.296;25.290;2023-08-08T00:32:24;17.40;99.90
24614;DHT22;12760;46.296;25.290;2023-08-08T00:34:50;17.30;99.90
24614;DHT22;12760;46.296;25.290;2023-08-08T00:37:16;17.30;99.90
24614;DHT22;12760;46.296;25.290;2023-08-08T00:39:41;17.20;99.90
24614;DHT22;12760;46.296;25.290;2023-08-08T00:42:14;17.10;99.90
24614;DHT22;12760;46.296;25.290;2023-08-08T00:44:40;17.20;99.90
24614;DHT22;12760;46.296;25.290;2023-08-08T00:47:10;17.30;99.90
24614;DHT22;12760;46.296;25.290;2023-08-08T00:49:37;17.40;99.90
24614;DHT22;12760;46.296;25.290;2023-08-08T00:52:03;17.40;99.90
24614;DHT22;12760;46.296;25.290;2023-08-08T00:54:29;17.30;99.90
24614;DHT22;12760;46.296;25.290;2023-08-08T00:56:55;17.20;99.90
24614;DHT22;12760;46.296;25.290;2023-08-08T00:59:21;17.20;99.90
24614;DHT22;12760;46.296;25.290;2023-08-08T01:01:48;17.10;99.90
24614;DHT22;12760;46.296;25.290;2023-08-08T01:04:14;17.10;99.90
24614;DHT22;12760;46.296;25.290;2023-08-08T01:09:53;17.20;99.90
24614;DHT22;12760;46.296;25.290;2023-08-08T01:12:20;17.30;99.90
24614;DHT22;12760;46.296;25.290;2023-08-08T01:14:46;17.10;99.90
24614;DHT22;12760;46.296;25.290;2023-08-08T01:17:12;17.20;99.90
24614;DHT22;12760;46.296;25.290;2023-08-08T01:19:38;17.20;99.90
24614;DHT22;12760;46.296;25.290;2023-08-08T01:22:07;17.20;99.90
24614;DHT22;12760;46.296;25.290;2023-08-08T01:24:34;17.20;99.90
24614;DHT22;12760;46.296;25.290;2023-08-08T01:27:03;17.10;99.90
24614;DHT22;12760;46.296;25.290;2023-08-08T01:29:29;17.20;99.90
24614;DHT22;12760;46.296;25.290;2023-08-08T01:31:55;17.20;99.90
24614;DHT22;12760;46.296;25.290;2023-08-08T01:34:21;17.30;99.90
24614;DHT22;12760;46.296;25.290;2023-08-08T01:37:06;17.20;99.90
24614;DHT22;12760;46.296;25.290;2023-08-08T01:39:35;17.20;99.90
24614;DHT22;12760;46.296;25.290;2023-08-08T01:42:01;17.20;99.90
24614;DHT22;12760;46.296;25.290;2023-08-08T01:44:28;17.10;99.90
24614;DHT22;12760;46.296;25.290;2023-08-08T01:46:54;17.00;99.90
24614;DHT22;12760;46.296;25.290;2023-08-08T01:49:20;17.00;99.90
24614;DHT22;12760;46.296;25.290;2023-08-08T01:51:47;17.20;99.90
24614;DHT22;12760;46.296;25.290;2023-08-08T01:54:14;17.30;99.90
24614;DHT22;12760;46.296;25.290;2023-08-08T01:56:39;17.40;99.90
24614;DHT22;12760;46.296;25.290;2023-08-08T01:59:05;17.40;99.90
24614;DHT22;12760;46.296;25.290;2023-08-08T02:01:31;17.50;99.90
24614;DHT22;12760;46.296;25.290;2023-08-08T02:03:56;17.50;99.90
24614;DHT22;12760;46.296;25.290;2023-08-08T02:06:22;17.50;99.90
24614;DHT22;12760;46.296;25.290;2023-08-08T02:08:48;17.20;99.90
24614;DHT22;12760;46.296;25.290;2023-08-08T02:11:13;17.20;99.90
24614;DHT22;12760;46.296;25.290;2023-08-08T02:13:39;17.20;99.90
24614;DHT22;12760;46.296;25.290;2023-08-08T02:16:05;17.20;99.90
24614;DHT22;12760;46.296;25.290;2023-08-08T02:18:30;17.30;99.90
24614;DHT22;12760;46.296;25.290;2023-08-08T02:20:56;17.30;99.90
24614;DHT22;12760;46.296;25.290;2023-08-08T02:23:22;17.20;99.90
24614;DHT22;12760;46.296;25.290;2023-08-08T02:25:47;17.20;99.90
24614;DHT22;12760;46.296;25.290;2023-08-08T02:28:13;17.10;99.90
24614;DHT22;12760;46.296;25.290;2023-08-08T02:30:39;17.10;99.90
24614;DHT22;12760;46.296;25.290;2023-08-08T02:33:04;17.20;99.90
24614;DHT22;12760;46.296;25.290;2023-08-08T02:35:30;17.20;99.90
24614;DHT22;12760;46.296;25.290;2023-08-08T02:37:56;17.30;99.90
24614;DHT22;12760;46.296;25.290;2023-08-08T02:40:22;17.30;99.90
24614;DHT22;12760;46.296;25.290;2023-08-08T02:42:49;17.20;99.90
24614;DHT22;12760;46.296;25.290;2023-08-08T02:45:15;17.10;99.90
24614;DHT22;12760;46.296;25.290;2023-08-08T02:47:41;17.20;99.90
24614;DHT22;12760;46.296;25.290;2023-08-08T02:50:07;17.20;99.90
24614;DHT22;12760;46.296;25.290;2023-08-08T02:52:33;17.10;99.90
24614;DHT22;12760;46.296;25.290;2023-08-08T02:54:58;17.00;99.90
24614;DHT22;12760;46.296;25.290;2023-08-08T02:57:24;17.00;99.90
24614;DHT22;12760;46.296;25.290;2023-08-08T02:59:50;16.90;99.90
24614;DHT22;12760;46.296;25.290;2023-08-08T03:02:15;17.00;99.90
24614;DHT22;12760;46.296;25.290;2023-08-08T03:04:41;17.00;99.90
24614;DHT22;12760;46.296;25.290;2023-08-08T03:07:07;17.00;99.90
24614;DHT22;12760;46.296;25.290;2023-08-08T03:09:32;17.10;99.90
24614;DHT22;12760;46.296;25.290;2023-08-08T03:11:58;17.10;99.90
24614;DHT22;12760;46.296;25.290;2023-08-08T03:14:24;17.10;99.90
24614;DHT22;12760;46.296;25.290;2023-08-08T03:16:49;17.20;99.90
24614;DHT22;12760;46.296;25.290;2023-08-08T03:19:15;17.20;99.90
24614;DHT22;12760;46.296;25.290;2023-08-08T03:21:41;17.30;99.90
24614;DHT22;12760;46.296;25.290;2023-08-08T03:24:06;17.20;99.90
24614;DHT22;12760;46.296;25.290;2023-08-08T03:26:32;17.30;99.90
24614;DHT22;12760;46.296;25.290;2023-08-08T03:28:58;17.20;99.90
24614;DHT22;12760;46.296;25.290;2023-08-08T03:31:23;17.10;99.90
24614;DHT22;12760;46.296;25.290;2023-08-08T03:33:51;17.10;99.90
24614;DHT22;12760;46.296;25.290;2023-08-08T03:36:17;17.00;99.90
24614;DHT22;12760;46.296;25.290;2023-08-08T03:38:43;17.00;99.90
24614;DHT22;12760;46.296;25.290;2023-08-08T03:41:12;17.10;99.90
24614;DHT22;12760;46.296;25.290;2023-08-08T03:43:39;17.10;99.90
24614;DHT22;12760;46.296;25.290;2023-08-08T03:46:05;17.20;99.90
24614;DHT22;12760;46.296;25.290;2023-08-08T03:48:30;17.20;99.90
24614;DHT22;12760;46.296;25.290;2023-08-08T03:50:56;17.20;99.90
24614;DHT22;12760;46.296;25.290;2023-08-08T03:53:22;17.20;99.90
24614;DHT22;12760;46.296;25.290;2023-08-08T03:55:47;17.20;99.90
24614;DHT22;12760;46.296;25.290;2023-08-08T03:58:13;17.20;99.90
24614;DHT22;12760;46.296;25.290;2023-08-08T04:00:39;17.20;99.90
24614;DHT22;12760;46.296;25.290;2023-08-08T04:03:14;17.20;99.90
24614;DHT22;12760;46.296;25.290;2023-08-08T04:05:41;17.20;99.90
24614;DHT22;12760;46.296;25.290;2023-08-08T04:08:07;17.20;99.90
24614;DHT22;12760;46.296;25.290;2023-08-08T04:10:32;17.30;99.90
24614;DHT22;12760;46.296;25.290;2023-08-08T04:12:58;17.30;99.90
24614;DHT22;12760;46.296;25.290;2023-08-08T04:15:24;17.40;99.90
24614;DHT22;12760;46.296;25.290;2023-08-08T04:17:49;17.40;99.90
24614;DHT22;12760;46.296;25.290;2023-08-08T04:20:15;17.40;99.90
24614;DHT22;12760;46.296;25.290;2023-08-08T04:22:41;17.30;99.90
24614;DHT22;12760;46.296;25.290;2023-08-08T04:25:07;17.10;99.90
24614;DHT22;12760;46.296;25.290;2023-08-08T04:27:33;17.10;99.90
24614;DHT22;12760;46.296;25.290;2023-08-08T04:29:59;17.10;99.90
24614;DHT22;12760;46.296;25.290;2023-08-08T04:32:24;17.10;99.90
24614;DHT22;12760;46.296;25.290;2023-08-08T04:34:50;17.20;99.90
24614;DHT22;12760;46.296;25.290;2023-08-08T04:37:16;17.20;99.90
24614;DHT22;12760;46.296;25.290;2023-08-08T04:39:42;17.20;99.90
24614;DHT22;12760;46.296;25.290;2023-08-08T04:42:07;17.20;99.90
24614;DHT22;12760;46.296;25.290;2023-08-08T04:44:33;17.30;99.90
24614;DHT22;12760;46.296;25.290;2023-08-08T04:46:58;17.20;99.90
24614;DHT22;12760;46.296;25.290;2023-08-08T04:49:24;17.20;99.90
24614;DHT22;12760;46.296;25.290;2023-08-08T04:51:50;17.30;99.90
24614;DHT22;12760;46.296;25.290;2023-08-08T04:54:15;17.40;99.90
24614;DHT22;12760;46.296;25.290;2023-08-08T04:56:41;17.50;99.90
24614;DHT22;12760;46.296;25.290;2023-08-08T04:59:07;17.60;99.90
24614;DHT22;12760;46.296;25.290;2023-08-08T05:01:32;17.70;99.90
24614;DHT22;12760;46.296;25.290;2023-08-08T05:03:58;17.60;99.90
24614;DHT22;12760;46.296;25.290;2023-08-08T05:06:24;17.50;99.90
24614;DHT22;12760;46.296;25.290;2023-08-08T05:08:51;17.40;99.90
24614;DHT22;12760;46.296;25.290;2023-08-08T05:11:17;17.40;99.90
24614;DHT22;12760;46.296;25.290;2023-08-08T05:13:43;17.50;99.90
24614;DHT22;12760;46.296;25.290;2023-08-08T05:16:08;17.40;99.90
24614;DHT22;12760;46.296;25.290;2023-08-08T05:18:34;17.50;99.90
24614;DHT22;12760;46.296;25.290;2023-08-08T05:21:00;17.30;99.90
24614;DHT22;12760;46.296;25.290;2023-08-08T05:23:26;17.30;99.90
24614;DHT22;12760;46.296;25.290;2023-08-08T05:25:51;17.40;99.90
24614;DHT22;12760;46.296;25.290;2023-08-08T05:28:17;17.40;99.90
24614;DHT22;12760;46.296;25.290;2023-08-08T05:30:43;17.40;99.90
24614;DHT22;12760;46.296;25.290;2023-08-08T05:33:08;17.40;99.90
24614;DHT22;12760;46.296;25.290;2023-08-08T05:35:34;17.50;99.90
24614;DHT22;12760;46.296;25.290;2023-08-08T05:38:00;17.60;99.90
24614;DHT22;12760;46.296;25.290;2023-08-08T05:40:26;17.70;99.90
24614;DHT22;12760;46.296;25.290;2023-08-08T05:42:51;17.60;99.90
24614;DHT22;12760;46.296;25.290;2023-08-08T05:45:17;17.70;99.90
24614;DHT22;12760;46.296;25.290;2023-08-08T05:47:43;17.70;99.90
24614;DHT22;12760;46.296;25.290;2023-08-08T05:50:09;17.80;99.90
24614;DHT22;12760;46.296;25.290;2023-08-08T05:52:34;17.80;99.90
24614;DHT22;12760;46.296;25.290;2023-08-08T05:55:00;17.70;99.90
24614;DHT22;12760;46.296;25.290;2023-08-08T05:57:26;17.70;99.90
24614;DHT22;12760;46.296;25.290;2023-08-08T05:59:52;17.80;99.90
24614;DHT22;12760;46.296;25.290;2023-08-08T06:02:18;17.90;99.90
24614;DHT22;12760;46.296;25.290;2023-08-08T06:04:43;18.00;99.90
24614;DHT22;12760;46.296;25.290;2023-08-08T06:07:09;18.10;99.90
24614;DHT22;12760;46.296;25.290;2023-08-08T06:09:35;18.20;99.90
24614;DHT22;12760;46.296;25.290;2023-08-08T06:12:03;18.20;99.90
24614;DHT22;12760;46.296;25.290;2023-08-08T06:14:29;18.30;99.90
24614;DHT22;12760;46.296;25.290;2023-08-08T06:16:55;18.40;99.90
24614;DHT22;12760;46.296;25.290;2023-08-08T06:19:21;18.40;99.90
24614;DHT22;12760;46.296;25.290;2023-08-08T06:21:47;18.40;99.90
24614;DHT22;12760;46.296;25.290;2023-08-08T06:24:12;18.20;99.90
24614;DHT22;12760;46.296;25.290;2023-08-08T06:26:38;18.30;99.90
24614;DHT22;12760;46.296;25.290;2023-08-08T06:29:04;18.40;99.90
24614;DHT22;12760;46.296;25.290;2023-08-08T06:31:30;18.40;99.90
24614;DHT22;12760;46.296;25.290;2023-08-08T06:33:55;18.50;99.90
24614;DHT22;12760;46.296;25.290;2023-08-08T06:36:21;18.60;99.90
24614;DHT22;12760;46.296;25.290;2023-08-08T06:38:47;18.50;99.90
24614;DHT22;12760;46.296;25.290;2023-08-08T06:41:13;18.60;99.90
24614;DHT22;12760;46.296;25.290;2023-08-08T06:43:39;18.30;99.90
24614;DHT22;12760;46.296;25.290;2023-08-08T06:46:05;18.30;99.90
24614;DHT22;12760;46.296;25.290;2023-08-08T06:48:30;18.40;99.90
24614;DHT22;12760;46.296;25.290;2023-08-08T06:50:56;18.40;99.90
24614;DHT22;12760;46.296;25.290;2023-08-08T06:53:22;18.50;99.90
24614;DHT22;12760;46.296;25.290;2023-08-08T06:55:48;18.50;99.90
24614;DHT22;12760;46.296;25.290;2023-08-08T06:58:14;18.60;99.90
24614;DHT22;12760;46.296;25.290;2023-08-08T07:00:39;18.60;99.90
24614;DHT22;12760;46.296;25.290;2023-08-08T07:03:05;18.50;99.90
24614;DHT22;12760;46.296;25.290;2023-08-08T07:05:31;18.50;99.90
24614;DHT22;12760;46.296;25.290;2023-08-08T07:07:57;18.60;99.90
24614;DHT22;12760;46.296;25.290;2023-08-08T07:10:23;18.60;99.90
24614;DHT22;12760;46.296;25.290;2023-08-08T07:12:48;18.70;99.90
24614;DHT22;12760;46.296;25.290;2023-08-08T07:15:14;18.80;99.90
24614;DHT22;12760;46.296;25.290;2023-08-08T07:17:40;18.80;99.90
24614;DHT22;12760;46.296;25.290;2023-08-08T07:20:06;18.70;99.90
24614;DHT22;12760;46.296;25.290;2023-08-08T07:22:33;18.70;99.90
24614;DHT22;12760;46.296;25.290;2023-08-08T07:24:59;18.70;99.90
24614;DHT22;12760;46.296;25.290;2023-08-08T07:27:26;18.80;99.90
24614;DHT22;12760;46.296;25.290;2023-08-08T07:29:52;18.90;99.90
24614;DHT22;12760;46.296;25.290;2023-08-08T07:32:18;19.00;99.90
24614;DHT22;12760;46.296;25.290;2023-08-08T07:34:44;19.00;99.90
24614;DHT22;12760;46.296;25.290;2023-08-08T07:37:09;19.00;99.90
24614;DHT22;12760;46.296;25.290;2023-08-08T07:39:36;18.80;99.90
24614;DHT22;12760;46.296;25.290;2023-08-08T07:42:02;18.90;99.90
24614;DHT22;12760;46.296;25.290;2023-08-08T07:44:27;19.00;99.90
24614;DHT22;12760;46.296;25.290;2023-08-08T07:46:53;19.10;99.90
24614;DHT22;12760;46.296;25.290;2023-08-08T07:49:19;19.20;99.90
24614;DHT22;12760;46.296;25.290;2023-08-08T07:51:45;19.20;99.90
24614;DHT22;12760;46.296;25.290;2023-08-08T07:54:10;19.20;99.90
24614;DHT22;12760;46.296;25.290;2023-08-08T07:56:36;19.20;99.90
24614;DHT22;12760;46.296;25.290;2023-08-08T07:59:03;19.20;99.90
24614;DHT22;12760;46.296;25.290;2023-08-08T08:01:29;19.20;99.90
24614;DHT22;12760;46.296;25.290;2023-08-08T08:03:55;19.10;99.90
24614;DHT22;12760;46.296;25.290;2023-08-08T08:06:21;19.20;99.90
24614;DHT22;12760;46.296;25.290;2023-08-08T08:08:47;19.30;99.90
24614;DHT22;12760;46.296;25.290;2023-08-08T08:11:12;19.30;99.90
24614;DHT22;12760;46.296;25.290;2023-08-08T08:13:39;19.30;99.90
24614;DHT22;12760;46.296;25.290;2023-08-08T08:16:04;19.40;99.90
24614;DHT22;12760;46.296;25.290;2023-08-08T08:18:30;19.30;99.90
24614;DHT22;12760;46.296;25.290;2023-08-08T08:20:57;19.30;99.90
24614;DHT22;12760;46.296;25.290;2023-08-08T08:23:23;19.30;99.90
24614;DHT22;12760;46.296;25.290;2023-08-08T08:25:49;19.30;99.90
24614;DHT22;12760;46.296;25.290;2023-08-08T08:28:16;19.30;99.90
24614;DHT22;12760;46.296;25.290;2023-08-08T08:30:41;19.40;99.90
24614;DHT22;12760;46.296;25.290;2023-08-08T08:33:07;19.30;99.90
24614;DHT22;12760;46.296;25.290;2023-08-08T08:35:35;19.30;99.90
24614;DHT22;12760;46.296;25.290;2023-08-08T08:38:02;19.30;99.90
24614;DHT22;12760;46.296;25.290;2023-08-08T08:40:28;19.20;99.90
24614;DHT22;12760;46.296;25.290;2023-08-08T08:42:55;19.30;99.90
24614;DHT22;12760;46.296;25.290;2023-08-08T08:45:21;19.30;99.90
24614;DHT22;12760;46.296;25.290;2023-08-08T08:47:49;19.20;99.90
24614;DHT22;12760;46.296;25.290;2023-08-08T08:50:18;19.30;99.90
24614;DHT22;12760;46.296;25.290;2023-08-08T08:52:44;19.40;99.90
24614;DHT22;12760;46.296;25.290;2023-08-08T08:55:10;19.40;99.90
24614;DHT22;12760;46.296;25.290;2023-08-08T08:57:36;19.40;99.90
24614;DHT22;12760;46.296;25.290;2023-08-08T09:00:03;19.40;99.90
24614;DHT22;12760;46.296;25.290;2023-08-08T09:02:31;19.40;99.90
24614;DHT22;12760;46.296;25.290;2023-08-08T09:04:58;19.30;99.90
24614;DHT22;12760;46.296;25.290;2023-08-08T09:07:26;19.40;99.90
24614;DHT22;12760;46.296;25.290;2023-08-08T09:09:53;19.40;99.90
24614;DHT22;12760;46.296;25.290;2023-08-08T09:12:18;19.50;99.90
24614;DHT22;12760;46.296;25.290;2023-08-08T09:14:44;19.40;99.90
24614;DHT22;12760;46.296;25.290;2023-08-08T09:17:13;19.40;99.90
24614;DHT22;12760;46.296;25.290;2023-08-08T09:19:43;19.40;99.90
24614;DHT22;12760;46.296;25.290;2023-08-08T09:22:09;19.60;99.90
24614;DHT22;12760;46.296;25.290;2023-08-08T09:24:40;19.60;99.90
24614;DHT22;12760;46.296;25.290;2023-08-08T09:27:09;19.70;99.90
24614;DHT22;12760;46.296;25.290;2023-08-08T09:29:35;19.50;99.90
24614;DHT22;12760;46.296;25.290;2023-08-08T09:32:06;19.50;99.90
24614;DHT22;12760;46.296;25.290;2023-08-08T09:34:32;19.40;99.90
24614;DHT22;12760;46.296;25.290;2023-08-08T09:36:58;19.20;99.90
24614;DHT22;12760;46.296;25.290;2023-08-08T09:39:24;19.20;99.90
24614;DHT22;12760;46.296;25.290;2023-08-08T09:41:50;19.10;99.90
24614;DHT22;12760;46.296;25.290;2023-08-08T09:44:15;19.10;99.90
24614;DHT22;12760;46.296;25.290;2023-08-08T09:46:41;19.10;99.90
24614;DHT22;12760;46.296;25.290;2023-08-08T09:49:11;19.20;99.90
24614;DHT22;12760;46.296;25.290;2023-08-08T09:51:38;19.40;99.90
24614;DHT22;12760;46.296;25.290;2023-08-08T09:54:04;19.50;99.90
24614;DHT22;12760;46.296;25.290;2023-08-08T09:56:33;19.70;99.90
24614;DHT22;12760;46.296;25.290;2023-08-08T09:59:00;19.70;99.90
24614;DHT22;12760;46.296;25.290;2023-08-08T10:01:27;19.80;99.90
24614;DHT22;12760;46.296;25.290;2023-08-08T10:03:52;19.70;99.90
24614;DHT22;12760;46.296;25.290;2023-08-08T10:06:18;19.80;99.90
24614;DHT22;12760;46.296;25.290;2023-08-08T10:08:45;19.80;99.90
24614;DHT22;12760;46.296;25.290;2023-08-08T10:11:12;19.90;99.90
24614;DHT22;12760;46.296;25.290;2023-08-08T10:13:38;20.20;99.90
24614;DHT22;12760;46.296;25.290;2023-08-08T10:16:12;20.20;99.90
24614;DHT22;12760;46.296;25.290;2023-08-08T10:18:40;20.30;99.90
24614;DHT22;12760;46.296;25.290;2023-08-08T10:21:06;20.20;99.90
24614;DHT22;12760;46.296;25.290;2023-08-08T10:23:37;20.30;99.90
24614;DHT22;12760;46.296;25.290;2023-08-08T10:26:03;20.30;99.90
24614;DHT22;12760;46.296;25.290;2023-08-08T10:28:32;20.30;99.90
24614;DHT22;12760;46.296;25.290;2023-08-08T10:31:00;20.20;99.90
24614;DHT22;12760;46.296;25.290;2023-08-08T10:33:47;20.20;99.90
24614;DHT22;12760;46.296;25.290;2023-08-08T10:36:13;20.20;99.90
24614;DHT22;12760;46.296;25.290;2023-08-08T10:38:40;20.10;99.90
24614;DHT22;12760;46.296;25.290;2023-08-08T10:41:12;20.10;99.90
24614;DHT22;12760;46.296;25.290;2023-08-08T10:43:38;20.10;99.90
24614;DHT22;12760;46.296;25.290;2023-08-08T10:46:11;20.10;99.90
24614;DHT22;12760;46.296;25.290;2023-08-08T10:48:37;20.00;99.90
24614;DHT22;12760;46.296;25.290;2023-08-08T10:51:14;20.00;99.90
24614;DHT22;12760;46.296;25.290;2023-08-08T10:53:40;19.90;99.90
24614;DHT22;12760;46.296;25.290;2023-08-08T10:56:05;19.80;99.90
24614;DHT22;12760;46.296;25.290;2023-08-08T10:58:36;19.90;99.90
24614;DHT22;12760;46.296;25.290;2023-08-08T11:01:02;20.00;99.90
24614;DHT22;12760;46.296;25.290;2023-08-08T11:03:39;20.10;99.90
24614;DHT22;12760;46.296;25.290;2023-08-08T11:06:10;20.10;99.90
24614;DHT22;12760;46.296;25.290;2023-08-08T11:08:37;20.10;99.90
24614;DHT22;12760;46.296;25.290;2023-08-08T11:11:04;20.20;99.90
24614;DHT22;12760;46.296;25.290;2023-08-08T11:13:31;20.20;99.90
24614;DHT22;12760;46.296;25.290;2023-08-08T11:15:58;20.10;99.90
24614;DHT22;12760;46.296;25.290;2023-08-08T11:18:24;20.10;99.90
24614;DHT22;12760;46.296;25.290;2023-08-08T11:20:51;20.00;99.90
24614;DHT22;12760;46.296;25.290;2023-08-08T11:23:17;20.10;99.90
24614;DHT22;12760;46.296;25.290;2023-08-08T11:25:45;20.10;99.90
24614;DHT22;12760;46.296;25.290;2023-08-08T11:28:11;20.20;99.90
24614;DHT22;12760;46.296;25.290;2023-08-08T11:30:40;20.20;99.90
24614;DHT22;12760;46.296;25.290;2023-08-08T11:33:07;20.10;99.90
24614;DHT22;12760;46.296;25.290;2023-08-08T11:35:32;20.20;99.90
24614;DHT22;12760;46.296;25.290;2023-08-08T11:38:00;20.30;99.90
24614;DHT22;12760;46.296;25.290;2023-08-08T11:40:28;20.40;99.90
24614;DHT22;12760;46.296;25.290;2023-08-08T11:42:55;20.60;99.90
24614;DHT22;12760;46.296;25.290;2023-08-08T11:45:22;20.60;99.90
24614;DHT22;12760;46.296;25.290;2023-08-08T11:47:50;20.80;99.90
24614;DHT22;12760;46.296;25.290;2023-08-08T11:50:18;21.00;99.90
24614;DHT22;12760;46.296;25.290;2023-08-08T11:52:46;21.10;99.90
24614;DHT22;12760;46.296;25.290;2023-08-08T11:55:12;21.00;99.90
24614;DHT22;12760;46.296;25.290;2023-08-08T11:57:39;20.80;99.90
24614;DHT22;12760;46.296;25.290;2023-08-08T12:02:33;20.80;99.90
24614;DHT22;12760;46.296;25.290;2023-08-08T12:05:06;20.80;99.90
24614;DHT22;12760;46.296;25.290;2023-08-08T12:07:33;20.90;99.90
24614;DHT22;12760;46.296;25.290;2023-08-08T12:10:04;21.00;99.90
24614;DHT22;12760;46.296;25.290;2023-08-08T12:12:33;21.10;99.90
24614;DHT22;12760;46.296;25.290;2023-08-08T12:15:06;21.10;99.90
24614;DHT22;12760;46.296;25.290;2023-08-08T12:17:31;21.10;99.90
24614;DHT22;12760;46.296;25.290;2023-08-08T12:20:02;21.10;99.90
24614;DHT22;12760;46.296;25.290;2023-08-08T12:22:29;21.10;99.90
24614;DHT22;12760;46.296;25.290;2023-08-08T12:24:54;21.00;99.90
24614;DHT22;12760;46.296;25.290;2023-08-08T12:27:20;21.00;99.90
24614;DHT22;12760;46.296;25.290;2023-08-08T12:29:46;21.10;99.90
24614;DHT22;12760;46.296;25.290;2023-08-08T12:32:12;21.10;99.90
24614;DHT22;12760;46.296;25.290;2023-08-08T12:34:37;21.00;99.90
24614;DHT22;12760;46.296;25.290;2023-08-08T12:37:03;20.90;99.90
24614;DHT22;12760;46.296;25.290;2023-08-08T12:39:29;20.90;99.90
24614;DHT22;12760;46.296;25.290;2023-08-08T12:41:55;21.10;99.90
24614;DHT22;12760;46.296;25.290;2023-08-08T12:44:21;21.30;99.90
24614;DHT22;12760;46.296;25.290;2023-08-08T12:46:47;21.40;99.90
24614;DHT22;12760;46.296;25.290;2023-08-08T12:49:13;21.30;99.90
24614;DHT22;12760;46.296;25.290;2023-08-08T12:51:39;21.40;99.90
24614;DHT22;12760;46.296;25.290;2023-08-08T12:54:05;21.50;99.90
24614;DHT22;12760;46.296;25.290;2023-08-08T12:56:31;21.50;99.90
24614;DHT22;12760;46.296;25.290;2023-08-08T12:58:57;21.60;99.90
24614;DHT22;12760;46.296;25.290;2023-08-08T13:01:22;21.60;99.90
24614;DHT22;12760;46.296;25.290;2023-08-08T13:03:50;21.70;99.90
24614;DHT22;12760;46.296;25.290;2023-08-08T13:06:16;21.80;99.90
24614;DHT22;12760;46.296;25.290;2023-08-08T13:08:42;21.80;99.90
24614;DHT22;12760;46.296;25.290;2023-08-08T13:11:08;21.80;99.90
24614;DHT22;12760;46.296;25.290;2023-08-08T13:13:33;21.80;99.90
24614;DHT22;12760;46.296;25.290;2023-08-08T13:15:59;21.80;99.90
24614;DHT22;12760;46.296;25.290;2023-08-08T13:18:25;21.80;99.90
24614;DHT22;12760;46.296;25.290;2023-08-08T13:20:51;21.80;99.90
24614;DHT22;12760;46.296;25.290;2023-08-08T13:23:17;21.90;99.90
24614;DHT22;12760;46.296;25.290;2023-08-08T13:25:43;21.90;99.10
24614;DHT22;12760;46.296;25.290;2023-08-08T13:28:09;22.10;99.90
24614;DHT22;12760;46.296;25.290;2023-08-08T13:30:35;22.00;99.30
24614;DHT22;12760;46.296;25.290;2023-08-08T13:33:01;22.00;99.70
24614;DHT22;12760;46.296;25.290;2023-08-08T13:35:27;21.90;99.60
24614;DHT22;12760;46.296;25.290;2023-08-08T13:37:53;21.90;99.90
24614;DHT22;12760;46.296;25.290;2023-08-08T13:40:20;21.90;99.50
24614;DHT22;12760;46.296;25.290;2023-08-08T13:42:46;21.80;99.90
24614;DHT22;12760;46.296;25.290;2023-08-08T13:45:17;21.70;99.90
24614;DHT22;12760;46.296;25.290;2023-08-08T13:47:43;21.80;99.80
24614;DHT22;12760;46.296;25.290;2023-08-08T13:50:09;21.80;99.90
24614;DHT22;12760;46.296;25.290;2023-08-08T13:52:35;21.80;99.90
24614;DHT22;12760;46.296;25.290;2023-08-08T13:55:01;21.80;99.80
24614;DHT22;12760;46.296;25.290;2023-08-08T13:57:26;21.70;99.90
24614;DHT22;12760;46.296;25.290;2023-08-08T13:59:52;21.70;99.90
24614;DHT22;12760;46.296;25.290;2023-08-08T14:02:18;21.80;99.90
24614;DHT22;12760;46.296;25.290;2023-08-08T14:04:45;21.80;99.90
24614;DHT22;12760;46.296;25.290;2023-08-08T14:07:11;21.70;99.90
24614;DHT22;12760;46.296;25.290;2023-08-08T14:09:36;21.70;99.90
24614;DHT22;12760;46.296;25.290;2023-08-08T14:12:03;21.80;99.90
24614;DHT22;12760;46.296;25.290;2023-08-08T14:14:29;21.70;99.90
24614;DHT22;12760;46.296;25.290;2023-08-08T14:16:54;21.70;99.90
24614;DHT22;12760;46.296;25.290;2023-08-08T14:19:20;21.70;99.90
24614;DHT22;12760;46.296;25.290;2023-08-08T14:21:46;21.70;99.90
24614;DHT22;12760;46.296;25.290;2023-08-08T14:24:12;21.70;99.90
24614;DHT22;12760;46.296;25.290;2023-08-08T14:26:37;21.70;99.90
24614;DHT22;12760;46.296;25.290;2023-08-08T14:29:04;21.70;99.90
24614;DHT22;12760;46.296;25.290;2023-08-08T14:31:30;21.80;99.90
24614;DHT22;12760;46.296;25.290;2023-08-08T14:33:56;21.80;99.90
24614;DHT22;12760;46.296;25.290;2023-08-08T14:36:22;21.80;99.80
24614;DHT22;12760;46.296;25.290;2023-08-08T14:38:47;21.90;99.90
24614;DHT22;12760;46.296;25.290;2023-08-08T14:41:13;21.90;99.90
24614;DHT22;12760;46.296;25.290;2023-08-08T14:43:39;22.00;99.90
24614;DHT22;12760;46.296;25.290;2023-08-08T14:46:05;22.00;99.90
24614;DHT22;12760;46.296;25.290;2023-08-08T14:48:31;21.90;99.50
24614;DHT22;12760;46.296;25.290;2023-08-08T14:50:57;21.90;99.70
24614;DHT22;12760;46.296;25.290;2023-08-08T14:53:23;21.90;99.90
24614;DHT22;12760;46.296;25.290;2023-08-08T14:55:48;21.90;99.90
24614;DHT22;12760;46.296;25.290;2023-08-08T14:58:14;22.00;99.90
24614;DHT22;12760;46.296;25.290;2023-08-08T15:00:41;21.90;99.90
24614;DHT22;12760;46.296;25.290;2023-08-08T15:03:07;21.90;99.90
24614;DHT22;12760;46.296;25.290;2023-08-08T15:05:33;21.80;99.90
24614;DHT22;12760;46.296;25.290;2023-08-08T15:07:58;21.80;99.90
24614;DHT22;12760;46.296;25.290;2023-08-08T15:10:24;21.80;99.90
24614;DHT22;12760;46.296;25.290;2023-08-08T15:12:50;21.90;99.60
24614;DHT22;12760;46.296;25.290;2023-08-08T15:15:16;21.90;99.20